sensor_id;sensor_type;location;lat;lon;timestamp;P1;durP1;ratioP1;P2;durP2;ratioP2
5811;SDS011;2932;52.400;9.558;2024-01-10T00:00:04;7.90;;;4.27;;
5811;SDS011;2932;52.400;9.558;2024-01-10T00:02:30;8.77;;;4.60;;
5811;SDS011;2932;52.400;9.558;2024-01-10T00:04:55;8.07;;;3.97;;
5811;SDS011;2932;52.400;9.558;2024-01-10T00:07:20;8.90;;;4.43;;
5811;SDS011;2932;52.400;9.558;2024-01-10T00:09:46;9.63;;;4.43;;
5811;SDS011;2932;52.400;9.558;2024-01-10T00:12:11;8.00;;;4.60;;
5811;SDS011;2932;52.400;9.558;2024-01-10T00:14:37;8.10;;;4.43;;
5811;SDS011;2932;52.400;9.558;2024-01-10T00:17:02;8.23;;;4.40;;
5811;SDS011;2932;52.400;9.558;2024-01-10T00:19:28;9.47;;;3.93;;
5811;SDS011;2932;52.400;9.558;2024-01-10T00:21:53;7.97;;;4.53;;
5811;SDS011;2932;52.400;9.558;2024-01-10T00:24:19;8.07;;;4.70;;
5811;SDS011;2932;52.400;9.558;2024-01-10T00:26:44;9.67;;;4.40;;
5811;SDS011;2932;52.400;9.558;2024-01-10T00:29:09;11.73;;;4.87;;
5811;SDS011;2932;52.400;9.558;2024-01-10T00:31:35;9.13;;;5.00;;
5811;SDS011;2932;52.400;9.558;2024-01-10T00:34:00;10.80;;;5.30;;
5811;SDS011;2932;52.400;9.558;2024-01-10T00:36:26;9.47;;;5.03;;
5811;SDS011;2932;52.400;9.558;2024-01-10T00:38:51;9.77;;;4.47;;
5811;SDS011;2932;52.400;9.558;2024-01-10T00:41:16;9.33;;;4.80;;
5811;SDS011;2932;52.400;9.558;2024-01-10T00:43:42;7.77;;;4.40;;
5811;SDS011;2932;52.400;9.558;2024-01-10T00:46:07;12.43;;;5.10;;
5811;SDS011;2932;52.400;9.558;2024-01-10T00:48:32;11.47;;;5.07;;
5811;SDS011;2932;52.400;9.558;2024-01-10T00:50:59;9.73;;;5.20;;
5811;SDS011;2932;52.400;9.558;2024-01-10T00:53:24;7.80;;;4.27;;
5811;SDS011;2932;52.400;9.558;2024-01-10T00:55:49;12.47;;;5.13;;
5811;SDS011;2932;52.400;9.558;2024-01-10T00:58:15;10.17;;;5.10;;
5811;SDS011;2932;52.400;9.558;2024-01-10T01:00:40;10.77;;;4.60;;
5811;SDS011;2932;52.400;9.558;2024-01-10T01:03:06;8.97;;;4.87;;
5811;SDS011;2932;52.400;9.558;2024-01-10T01:05:31;13.97;;;5.60;;
5811;SDS011;2932;52.400;9.558;2024-01-10T01:07:56;11.50;;;5.93;;
5811;SDS011;2932;52.400;9.558;2024-01-10T01:10:22;10.17;;;5.30;;
5811;SDS011;2932;52.400;9.558;2024-01-10T01:12:47;8.97;;;4.30;;
5811;SDS011;2932;52.400;9.558;2024-01-10T01:15:12;11.90;;;5.40;;
5811;SDS011;2932;52.400;9.558;2024-01-10T01:17:38;9.43;;;4.90;;
5811;SDS011;2932;52.400;9.558;2024-01-10T01:20:03;9.80;;;5.13;;
5811;SDS011;2932;52.400;9.558;2024-01-10T01:22:30;10.13;;;5.23;;
5811;SDS011;2932;52.400;9.558;2024-01-10T01:24:56;14.33;;;6.07;;
5811;SDS011;2932;52.400;9.558;2024-01-10T01:27:22;11.83;;;5.37;;
5811;SDS011;2932;52.400;9.558;2024-01-10T01:29:48;9.93;;;5.33;;
5811;SDS011;2932;52.400;9.558;2024-01-10T01:32:13;9.93;;;5.50;;
5811;SDS011;2932;52.400;9.558;2024-01-10T01:34:39;12.40;;;5.40;;
5811;SDS011;2932;52.400;9.558;2024-01-10T01:37:04;10.70;;;5.07;;
5811;SDS011;2932;52.400;9.558;2024-01-10T01:39:30;10.90;;;5.57;;
5811;SDS011;2932;52.400;9.558;2024-01-10T01:41:55;9.37;;;4.87;;
5811;SDS011;2932;52.400;9.558;2024-01-10T01:44:20;9.90;;;5.07;;
5811;SDS011;2932;52.400;9.558;2024-01-10T01:46:46;9.47;;;5.43;;
5811;SDS011;2932;52.400;9.558;2024-01-10T01:49:12;11.20;;;5.73;;
5811;SDS011;2932;52.400;9.558;2024-01-10T01:51:39;11.17;;;5.43;;
5811;SDS011;2932;52.400;9.558;2024-01-10T01:54:06;10.23;;;5.47;;
5811;SDS011;2932;52.400;9.558;2024-01-10T01:56:33;11.03;;;6.20;;
5811;SDS011;2932;52.400;9.558;2024-01-10T01:59:00;11.80;;;5.57;;
5811;SDS011;2932;52.400;9.558;2024-01-10T02:01:27;12.50;;;5.63;;
5811;SDS011;2932;52.400;9.558;2024-01-10T02:03:52;10.67;;;5.50;;
5811;SDS011;2932;52.400;9.558;2024-01-10T02:06:20;11.43;;;6.00;;
5811;SDS011;2932;52.400;9.558;2024-01-10T02:08:45;9.87;;;5.17;;
5811;SDS011;2932;52.400;9.558;2024-01-10T02:11:11;12.70;;;5.83;;
5811;SDS011;2932;52.400;9.558;2024-01-10T02:13:36;11.00;;;5.47;;
5811;SDS011;2932;52.400;9.558;2024-01-10T02:16:03;9.30;;;6.00;;
5811;SDS011;2932;52.400;9.558;2024-01-10T02:18:29;11.43;;;5.47;;
5811;SDS011;2932;52.400;9.558;2024-01-10T02:20:54;12.03;;;5.80;;
5811;SDS011;2932;52.400;9.558;2024-01-10T02:23:19;9.13;;;5.43;;
5811;SDS011;2932;52.400;9.558;2024-01-10T02:25:45;9.80;;;5.33;;
5811;SDS011;2932;52.400;9.558;2024-01-10T02:28:10;11.37;;;5.70;;
5811;SDS011;2932;52.400;9.558;2024-01-10T02:30:36;11.97;;;6.03;;
5811;SDS011;2932;52.400;9.558;2024-01-10T02:33:02;9.77;;;5.40;;
5811;SDS011;2932;52.400;9.558;2024-01-10T02:35:27;13.43;;;6.07;;
5811;SDS011;2932;52.400;9.558;2024-01-10T02:37:53;12.50;;;5.47;;
5811;SDS011;2932;52.400;9.558;2024-01-10T02:40:19;13.50;;;6.00;;
5811;SDS011;2932;52.400;9.558;2024-01-10T02:42:45;12.03;;;6.20;;
5811;SDS011;2932;52.400;9.558;2024-01-10T02:45:10;11.07;;;5.50;;
5811;SDS011;2932;52.400;9.558;2024-01-10T02:47:38;10.67;;;5.17;;
5811;SDS011;2932;52.400;9.558;2024-01-10T02:50:04;16.30;;;6.37;;
5811;SDS011;2932;52.400;9.558;2024-01-10T02:52:30;14.83;;;5.73;;
5811;SDS011;2932;52.400;9.558;2024-01-10T02:54:56;11.83;;;6.03;;
5811;SDS011;2932;52.400;9.558;2024-01-10T02:57:21;12.20;;;5.83;;
5811;SDS011;2932;52.400;9.558;2024-01-10T02:59:46;11.57;;;5.80;;
5811;SDS011;2932;52.400;9.558;2024-01-10T03:02:12;12.43;;;5.63;;
5811;SDS011;2932;52.400;9.558;2024-01-10T03:04:37;12.73;;;5.77;;
5811;SDS011;2932;52.400;9.558;2024-01-10T03:07:02;10.70;;;5.63;;
5811;SDS011;2932;52.400;9.558;2024-01-10T03:09:28;12.53;;;5.33;;
5811;SDS011;2932;52.400;9.558;2024-01-10T03:11:53;11.17;;;6.03;;
5811;SDS011;2932;52.400;9.558;2024-01-10T03:14:18;11.40;;;5.97;;
5811;SDS011;2932;52.400;9.558;2024-01-10T03:16:44;13.43;;;5.47;;
5811;SDS011;2932;52.400;9.558;2024-01-10T03:19:10;12.00;;;5.67;;
5811;SDS011;2932;52.400;9.558;2024-01-10T03:21:36;12.83;;;6.13;;
5811;SDS011;2932;52.400;9.558;2024-01-10T03:24:01;9.87;;;5.77;;
5811;SDS011;2932;52.400;9.558;2024-01-10T03:26:27;12.83;;;6.23;;
5811;SDS011;2932;52.400;9.558;2024-01-10T03:28:53;9.33;;;5.47;;
5811;SDS011;2932;52.400;9.558;2024-01-10T03:31:19;12.43;;;5.77;;
5811;SDS011;2932;52.400;9.558;2024-01-10T03:33:44;11.77;;;5.47;;
5811;SDS011;2932;52.400;9.558;2024-01-10T03:36:14;12.97;;;6.43;;
5811;SDS011;2932;52.400;9.558;2024-01-10T03:38:41;8.70;;;5.53;;
5811;SDS011;2932;52.400;9.558;2024-01-10T03:41:06;12.37;;;5.90;;
5811;SDS011;2932;52.400;9.558;2024-01-10T03:43:32;12.67;;;5.87;;
5811;SDS011;2932;52.400;9.558;2024-01-10T03:45:57;11.47;;;5.67;;
5811;SDS011;2932;52.400;9.558;2024-01-10T03:48:23;15.07;;;5.90;;
5811;SDS011;2932;52.400;9.558;2024-01-10T03:50:48;11.13;;;6.23;;
5811;SDS011;2932;52.400;9.558;2024-01-10T03:53:14;11.60;;;5.90;;
5811;SDS011;2932;52.400;9.558;2024-01-10T03:55:39;15.30;;;6.17;;
5811;SDS011;2932;52.400;9.558;2024-01-10T03:58:05;12.37;;;6.03;;
5811;SDS011;2932;52.400;9.558;2024-01-10T04:00:30;12.37;;;6.10;;
5811;SDS011;2932;52.400;9.558;2024-01-10T04:02:56;16.17;;;6.23;;
5811;SDS011;2932;52.400;9.558;2024-01-10T04:05:21;11.17;;;6.00;;
5811;SDS011;2932;52.400;9.558;2024-01-10T04:07:49;11.33;;;6.73;;
5811;SDS011;2932;52.400;9.558;2024-01-10T04:10:15;13.47;;;6.20;;
5811;SDS011;2932;52.400;9.558;2024-01-10T04:12:40;12.83;;;6.13;;
5811;SDS011;2932;52.400;9.558;2024-01-10T04:15:06;10.73;;;5.80;;
5811;SDS011;2932;52.400;9.558;2024-01-10T04:17:32;13.93;;;6.53;;
5811;SDS011;2932;52.400;9.558;2024-01-10T04:19:57;13.30;;;6.40;;
5811;SDS011;2932;52.400;9.558;2024-01-10T04:22:23;12.17;;;6.57;;
5811;SDS011;2932;52.400;9.558;2024-01-10T04:24:49;11.67;;;6.10;;
5811;SDS011;2932;52.400;9.558;2024-01-10T04:27:14;12.70;;;6.13;;
5811;SDS011;2932;52.400;9.558;2024-01-10T04:29:40;14.13;;;6.53;;
5811;SDS011;2932;52.400;9.558;2024-01-10T04:32:05;10.93;;;6.17;;
5811;SDS011;2932;52.400;9.558;2024-01-10T04:34:31;13.07;;;6.30;;
5811;SDS011;2932;52.400;9.558;2024-01-10T04:36:56;13.47;;;7.03;;
5811;SDS011;2932;52.400;9.558;2024-01-10T04:39:22;15.50;;;6.83;;
5811;SDS011;2932;52.400;9.558;2024-01-10T04:41:48;16.63;;;6.63;;
5811;SDS011;2932;52.400;9.558;2024-01-10T04:44:13;14.30;;;6.50;;
5811;SDS011;2932;52.400;9.558;2024-01-10T04:46:39;14.13;;;7.30;;
5811;SDS011;2932;52.400;9.558;2024-01-10T04:49:06;17.73;;;7.40;;
5811;SDS011;2932;52.400;9.558;2024-01-10T04:51:31;15.03;;;7.03;;
5811;SDS011;2932;52.400;9.558;2024-01-10T04:53:57;14.77;;;6.83;;
5811;SDS011;2932;52.400;9.558;2024-01-10T04:56:22;16.37;;;7.57;;
5811;SDS011;2932;52.400;9.558;2024-01-10T04:58:47;16.10;;;8.07;;
5811;SDS011;2932;52.400;9.558;2024-01-10T05:01:13;14.87;;;6.63;;
5811;SDS011;2932;52.400;9.558;2024-01-10T05:03:38;15.10;;;7.83;;
5811;SDS011;2932;52.400;9.558;2024-01-10T05:06:03;14.50;;;7.67;;
5811;SDS011;2932;52.400;9.558;2024-01-10T05:08:29;16.97;;;8.17;;
5811;SDS011;2932;52.400;9.558;2024-01-10T05:10:55;16.47;;;7.97;;
5811;SDS011;2932;52.400;9.558;2024-01-10T05:13:20;13.40;;;6.80;;
5811;SDS011;2932;52.400;9.558;2024-01-10T05:15:45;14.67;;;7.00;;
5811;SDS011;2932;52.400;9.558;2024-01-10T05:18:11;18.43;;;8.73;;
5811;SDS011;2932;52.400;9.558;2024-01-10T05:20:36;13.23;;;6.87;;
5811;SDS011;2932;52.400;9.558;2024-01-10T05:23:01;14.43;;;6.73;;
5811;SDS011;2932;52.400;9.558;2024-01-10T05:25:27;17.67;;;7.10;;
5811;SDS011;2932;52.400;9.558;2024-01-10T05:27:52;17.67;;;8.87;;
5811;SDS011;2932;52.400;9.558;2024-01-10T05:30:18;16.10;;;8.37;;
5811;SDS011;2932;52.400;9.558;2024-01-10T05:32:43;15.00;;;7.50;;
5811;SDS011;2932;52.400;9.558;2024-01-10T05:35:09;24.50;;;9.10;;
5811;SDS011;2932;52.400;9.558;2024-01-10T05:37:35;20.97;;;8.93;;
5811;SDS011;2932;52.400;9.558;2024-01-10T05:40:01;18.03;;;8.80;;
5811;SDS011;2932;52.400;9.558;2024-01-10T05:42:27;19.70;;;8.80;;
5811;SDS011;2932;52.400;9.558;2024-01-10T05:44:52;18.40;;;8.43;;
5811;SDS011;2932;52.400;9.558;2024-01-10T05:47:18;19.03;;;8.80;;
5811;SDS011;2932;52.400;9.558;2024-01-10T05:49:43;19.70;;;9.30;;
5811;SDS011;2932;52.400;9.558;2024-01-10T05:52:08;20.70;;;9.13;;
5811;SDS011;2932;52.400;9.558;2024-01-10T05:54:34;18.87;;;8.63;;
5811;SDS011;2932;52.400;9.558;2024-01-10T05:56:59;20.00;;;9.47;;
5811;SDS011;2932;52.400;9.558;2024-01-10T05:59:26;18.07;;;8.40;;
5811;SDS011;2932;52.400;9.558;2024-01-10T06:01:51;16.63;;;9.10;;
5811;SDS011;2932;52.400;9.558;2024-01-10T06:04:17;21.00;;;8.63;;
5811;SDS011;2932;52.400;9.558;2024-01-10T06:06:42;18.03;;;8.83;;
5811;SDS011;2932;52.400;9.558;2024-01-10T06:09:07;22.33;;;9.57;;
5811;SDS011;2932;52.400;9.558;2024-01-10T06:11:40;20.83;;;9.67;;
5811;SDS011;2932;52.400;9.558;2024-01-10T06:14:06;20.43;;;9.73;;
5811;SDS011;2932;52.400;9.558;2024-01-10T06:16:31;22.63;;;10.30;;
5811;SDS011;2932;52.400;9.558;2024-01-10T06:18:56;18.90;;;9.83;;
5811;SDS011;2932;52.400;9.558;2024-01-10T06:21:21;18.30;;;9.23;;
5811;SDS011;2932;52.400;9.558;2024-01-10T06:23:47;19.23;;;9.03;;
5811;SDS011;2932;52.400;9.558;2024-01-10T06:26:12;24.33;;;9.10;;
5811;SDS011;2932;52.400;9.558;2024-01-10T06:28:37;22.83;;;9.30;;
5811;SDS011;2932;52.400;9.558;2024-01-10T06:31:04;21.73;;;10.50;;
5811;SDS011;2932;52.400;9.558;2024-01-10T06:33:29;21.53;;;9.53;;
5811;SDS011;2932;52.400;9.558;2024-01-10T06:35:54;21.73;;;9.57;;
5811;SDS011;2932;52.400;9.558;2024-01-10T06:38:20;21.03;;;9.77;;
5811;SDS011;2932;52.400;9.558;2024-01-10T06:40:47;23.07;;;9.20;;
5811;SDS011;2932;52.400;9.558;2024-01-10T06:43:13;20.63;;;9.03;;
5811;SDS011;2932;52.400;9.558;2024-01-10T06:45:39;22.37;;;9.37;;
5811;SDS011;2932;52.400;9.558;2024-01-10T06:48:05;20.83;;;9.57;;
5811;SDS011;2932;52.400;9.558;2024-01-10T06:50:31;20.90;;;9.17;;
5811;SDS011;2932;52.400;9.558;2024-01-10T06:52:56;22.20;;;9.80;;
5811;SDS011;2932;52.400;9.558;2024-01-10T06:55:22;24.53;;;9.77;;
5811;SDS011;2932;52.400;9.558;2024-01-10T06:57:49;20.27;;;9.03;;
5811;SDS011;2932;52.400;9.558;2024-01-10T07:00:17;20.33;;;10.23;;
5811;SDS011;2932;52.400;9.558;2024-01-10T07:02:46;21.50;;;9.37;;
5811;SDS011;2932;52.400;9.558;2024-01-10T07:05:12;23.47;;;9.73;;
5811;SDS011;2932;52.400;9.558;2024-01-10T07:07:37;22.07;;;9.83;;
5811;SDS011;2932;52.400;9.558;2024-01-10T07:10:03;25.00;;;10.53;;
5811;SDS011;2932;52.400;9.558;2024-01-10T07:12:30;24.63;;;10.10;;
5811;SDS011;2932;52.400;9.558;2024-01-10T07:14:58;21.17;;;10.23;;
5811;SDS011;2932;52.400;9.558;2024-01-10T07:17:24;20.60;;;10.00;;
5811;SDS011;2932;52.400;9.558;2024-01-10T07:19:49;21.87;;;9.70;;
5811;SDS011;2932;52.400;9.558;2024-01-10T07:22:15;25.23;;;10.27;;
5811;SDS011;2932;52.400;9.558;2024-01-10T07:24:40;20.63;;;9.50;;
5811;SDS011;2932;52.400;9.558;2024-01-10T07:27:06;22.10;;;9.37;;
5811;SDS011;2932;52.400;9.558;2024-01-10T07:29:34;24.73;;;9.77;;
5811;SDS011;2932;52.400;9.558;2024-01-10T07:32:00;24.57;;;11.00;;
5811;SDS011;2932;52.400;9.558;2024-01-10T07:34:25;24.00;;;10.13;;
5811;SDS011;2932;52.400;9.558;2024-01-10T07:36:50;25.40;;;10.80;;
5811;SDS011;2932;52.400;9.558;2024-01-10T07:39:16;22.90;;;9.53;;
5811;SDS011;2932;52.400;9.558;2024-01-10T07:41:43;25.23;;;10.83;;
5811;SDS011;2932;52.400;9.558;2024-01-10T07:44:09;23.43;;;10.07;;
5811;SDS011;2932;52.400;9.558;2024-01-10T07:46:35;24.90;;;10.30;;
5811;SDS011;2932;52.400;9.558;2024-01-10T07:49:02;21.00;;;9.97;;
5811;SDS011;2932;52.400;9.558;2024-01-10T07:51:29;24.10;;;9.67;;
5811;SDS011;2932;52.400;9.558;2024-01-10T07:53:55;20.00;;;9.23;;
5811;SDS011;2932;52.400;9.558;2024-01-10T07:56:20;22.63;;;10.00;;
5811;SDS011;2932;52.400;9.558;2024-01-10T07:58:45;17.47;;;8.63;;
5811;SDS011;2932;52.400;9.558;2024-01-10T08:01:11;20.33;;;9.50;;
5811;SDS011;2932;52.400;9.558;2024-01-10T08:03:36;21.63;;;9.43;;
5811;SDS011;2932;52.400;9.558;2024-01-10T08:06:02;20.20;;;9.50;;
5811;SDS011;2932;52.400;9.558;2024-01-10T08:08:28;24.67;;;10.73;;
5811;SDS011;2932;52.400;9.558;2024-01-10T08:10:53;18.80;;;9.50;;
5811;SDS011;2932;52.400;9.558;2024-01-10T08:13:20;23.20;;;11.10;;
5811;SDS011;2932;52.400;9.558;2024-01-10T08:15:46;21.80;;;10.97;;
5811;SDS011;2932;52.400;9.558;2024-01-10T08:18:11;22.73;;;10.53;;
5811;SDS011;2932;52.400;9.558;2024-01-10T08:20:36;23.67;;;10.33;;
5811;SDS011;2932;52.400;9.558;2024-01-10T08:23:02;19.07;;;9.33;;
5811;SDS011;2932;52.400;9.558;2024-01-10T08:25:27;24.53;;;10.57;;
5811;SDS011;2932;52.400;9.558;2024-01-10T08:27:52;25.27;;;10.10;;
5811;SDS011;2932;52.400;9.558;2024-01-10T08:30:20;21.73;;;10.50;;
5811;SDS011;2932;52.400;9.558;2024-01-10T08:32:46;21.30;;;10.73;;
5811;SDS011;2932;52.400;9.558;2024-01-10T08:35:12;22.13;;;10.33;;
5811;SDS011;2932;52.400;9.558;2024-01-10T08:37:37;21.67;;;10.07;;
5811;SDS011;2932;52.400;9.558;2024-01-10T08:40:02;21.67;;;10.10;;
5811;SDS011;2932;52.400;9.558;2024-01-10T08:42:32;24.10;;;10.97;;
5811;SDS011;2932;52.400;9.558;2024-01-10T08:44:58;21.37;;;10.37;;
5811;SDS011;2932;52.400;9.558;2024-01-10T08:47:23;23.73;;;10.53;;
5811;SDS011;2932;52.400;9.558;2024-01-10T08:49:49;24.07;;;11.50;;
5811;SDS011;2932;52.400;9.558;2024-01-10T08:52:15;24.03;;;10.83;;
5811;SDS011;2932;52.400;9.558;2024-01-10T08:54:40;27.40;;;10.97;;
5811;SDS011;2932;52.400;9.558;2024-01-10T08:57:05;26.97;;;11.60;;
5811;SDS011;2932;52.400;9.558;2024-01-10T08:59:31;23.90;;;10.93;;
5811;SDS011;2932;52.400;9.558;2024-01-10T09:01:56;26.80;;;10.80;;
5811;SDS011;2932;52.400;9.558;2024-01-10T09:04:21;21.83;;;10.73;;
5811;SDS011;2932;52.400;9.558;2024-01-10T09:06:47;23.23;;;11.57;;
5811;SDS011;2932;52.400;9.558;2024-01-10T09:09:12;22.67;;;11.30;;
5811;SDS011;2932;52.400;9.558;2024-01-10T09:11:44;25.50;;;11.90;;
5811;SDS011;2932;52.400;9.558;2024-01-10T09:14:09;22.40;;;11.83;;
5811;SDS011;2932;52.400;9.558;2024-01-10T09:16:35;25.10;;;11.53;;
5811;SDS011;2932;52.400;9.558;2024-01-10T09:19:00;23.23;;;11.43;;
5811;SDS011;2932;52.400;9.558;2024-01-10T09:21:25;23.43;;;11.43;;
5811;SDS011;2932;52.400;9.558;2024-01-10T09:23:51;29.03;;;11.63;;
5811;SDS011;2932;52.400;9.558;2024-01-10T09:26:18;24.37;;;10.93;;
5811;SDS011;2932;52.400;9.558;2024-01-10T09:28:43;24.87;;;11.97;;
5811;SDS011;2932;52.400;9.558;2024-01-10T09:31:09;26.40;;;11.90;;
5811;SDS011;2932;52.400;9.558;2024-01-10T09:33:34;22.40;;;11.10;;
5811;SDS011;2932;52.400;9.558;2024-01-10T09:36:00;29.63;;;12.43;;
5811;SDS011;2932;52.400;9.558;2024-01-10T09:38:25;27.57;;;11.97;;
5811;SDS011;2932;52.400;9.558;2024-01-10T09:40:51;25.30;;;12.10;;
5811;SDS011;2932;52.400;9.558;2024-01-10T09:43:26;29.90;;;13.20;;
5811;SDS011;2932;52.400;9.558;2024-01-10T09:45:51;26.53;;;12.80;;
5811;SDS011;2932;52.400;9.558;2024-01-10T09:48:19;30.13;;;13.10;;
5811;SDS011;2932;52.400;9.558;2024-01-10T09:50:44;26.53;;;12.07;;
5811;SDS011;2932;52.400;9.558;2024-01-10T09:53:16;26.77;;;12.10;;
5811;SDS011;2932;52.400;9.558;2024-01-10T09:55:49;24.93;;;12.23;;
5811;SDS011;2932;52.400;9.558;2024-01-10T09:58:14;25.33;;;12.47;;
5811;SDS011;2932;52.400;9.558;2024-01-10T10:00:40;25.37;;;11.67;;
5811;SDS011;2932;52.400;9.558;2024-01-10T10:03:09;30.67;;;12.90;;
5811;SDS011;2932;52.400;9.558;2024-01-10T10:05:38;24.30;;;12.30;;
5811;SDS011;2932;52.400;9.558;2024-01-10T10:08:07;27.50;;;13.37;;
5811;SDS011;2932;52.400;9.558;2024-01-10T10:10:34;22.43;;;11.40;;
5811;SDS011;2932;52.400;9.558;2024-01-10T10:13:00;26.20;;;12.33;;
5811;SDS011;2932;52.400;9.558;2024-01-10T10:15:25;32.30;;;12.73;;
5811;SDS011;2932;52.400;9.558;2024-01-10T10:17:53;25.87;;;12.97;;
5811;SDS011;2932;52.400;9.558;2024-01-10T10:20:26;25.60;;;12.53;;
5811;SDS011;2932;52.400;9.558;2024-01-10T10:22:57;27.57;;;12.70;;
5811;SDS011;2932;52.400;9.558;2024-01-10T10:25:29;26.20;;;12.40;;
5811;SDS011;2932;52.400;9.558;2024-01-10T10:27:59;28.67;;;11.70;;
5811;SDS011;2932;52.400;9.558;2024-01-10T10:30:26;25.83;;;12.07;;
5811;SDS011;2932;52.400;9.558;2024-01-10T10:32:52;24.63;;;11.83;;
5811;SDS011;2932;52.400;9.558;2024-01-10T10:35:18;27.77;;;13.43;;
5811;SDS011;2932;52.400;9.558;2024-01-10T10:37:45;35.33;;;15.27;;
5811;SDS011;2932;52.400;9.558;2024-01-10T10:40:14;26.23;;;12.20;;
5811;SDS011;2932;52.400;9.558;2024-01-10T10:42:41;25.53;;;12.23;;
5811;SDS011;2932;52.400;9.558;2024-01-10T10:45:12;22.80;;;11.20;;
5811;SDS011;2932;52.400;9.558;2024-01-10T10:47:42;30.53;;;12.67;;
5811;SDS011;2932;52.400;9.558;2024-01-10T10:50:12;28.23;;;13.93;;
5811;SDS011;2932;52.400;9.558;2024-01-10T10:52:40;27.77;;;13.67;;
5811;SDS011;2932;52.400;9.558;2024-01-10T10:55:09;26.63;;;13.33;;
5811;SDS011;2932;52.400;9.558;2024-01-10T10:57:38;27.83;;;12.20;;
5811;SDS011;2932;52.400;9.558;2024-01-10T11:00:05;26.07;;;12.60;;
5811;SDS011;2932;52.400;9.558;2024-01-10T11:02:32;26.60;;;12.97;;
5811;SDS011;2932;52.400;9.558;2024-01-10T11:04:57;23.00;;;11.80;;
5811;SDS011;2932;52.400;9.558;2024-01-10T11:07:24;23.20;;;11.77;;
5811;SDS011;2932;52.400;9.558;2024-01-10T11:09:49;26.33;;;12.80;;
5811;SDS011;2932;52.400;9.558;2024-01-10T11:15:24;28.43;;;13.43;;
5811;SDS011;2932;52.400;9.558;2024-01-10T11:18:02;25.73;;;13.67;;
5811;SDS011;2932;52.400;9.558;2024-01-10T11:20:59;31.53;;;14.27;;
5811;SDS011;2932;52.400;9.558;2024-01-10T11:26:09;24.93;;;12.83;;
5811;SDS011;2932;52.400;9.558;2024-01-10T11:28:39;25.00;;;13.70;;
5811;SDS011;2932;52.400;9.558;2024-01-10T11:31:05;28.20;;;13.97;;
5811;SDS011;2932;52.400;9.558;2024-01-10T11:33:32;25.57;;;13.77;;
5811;SDS011;2932;52.400;9.558;2024-01-10T11:38:41;27.20;;;15.23;;
5811;SDS011;2932;52.400;9.558;2024-01-10T11:41:14;25.97;;;14.50;;
5811;SDS011;2932;52.400;9.558;2024-01-10T11:43:44;25.70;;;14.73;;
5811;SDS011;2932;52.400;9.558;2024-01-10T11:46:10;27.93;;;16.07;;
5811;SDS011;2932;52.400;9.558;2024-01-10T11:48:37;24.07;;;15.40;;
5811;SDS011;2932;52.400;9.558;2024-01-10T11:51:03;25.67;;;15.17;;
5811;SDS011;2932;52.400;9.558;2024-01-10T11:53:41;27.97;;;16.20;;
5811;SDS011;2932;52.400;9.558;2024-01-10T11:56:11;26.93;;;15.93;;
5811;SDS011;2932;52.400;9.558;2024-01-10T12:01:41;27.43;;;16.33;;
5811;SDS011;2932;52.400;9.558;2024-01-10T12:04:07;27.45;;;16.00;;
5811;SDS011;2932;52.400;9.558;2024-01-10T12:06:35;27.33;;;17.38;;
5811;SDS011;2932;52.400;9.558;2024-01-10T12:09:01;30.65;;;15.70;;
5811;SDS011;2932;52.400;9.558;2024-01-10T12:11:33;28.95;;;17.50;;
5811;SDS011;2932;52.400;9.558;2024-01-10T12:13:58;28.48;;;17.63;;
5811;SDS011;2932;52.400;9.558;2024-01-10T12:16:24;26.40;;;17.25;;
5811;SDS011;2932;52.400;9.558;2024-01-10T12:18:49;25.65;;;17.08;;
5811;SDS011;2932;52.400;9.558;2024-01-10T12:21:16;31.40;;;17.38;;
5811;SDS011;2932;52.400;9.558;2024-01-10T12:23:42;27.60;;;17.50;;
5811;SDS011;2932;52.400;9.558;2024-01-10T12:26:08;28.90;;;17.90;;
5811;SDS011;2932;52.400;9.558;2024-01-10T12:28:36;25.90;;;17.60;;
5811;SDS011;2932;52.400;9.558;2024-01-10T12:31:05;32.00;;;17.92;;
5811;SDS011;2932;52.400;9.558;2024-01-10T12:33:36;25.42;;;16.85;;
5811;SDS011;2932;52.400;9.558;2024-01-10T12:36:06;26.60;;;18.20;;
5811;SDS011;2932;52.400;9.558;2024-01-10T12:38:33;29.77;;;18.25;;
5811;SDS011;2932;52.400;9.558;2024-01-10T12:40:59;31.70;;;17.02;;
5811;SDS011;2932;52.400;9.558;2024-01-10T12:43:25;26.42;;;17.88;;
5811;SDS011;2932;52.400;9.558;2024-01-10T12:46:12;29.40;;;18.35;;
5811;SDS011;2932;52.400;9.558;2024-01-10T12:48:38;27.40;;;17.92;;
5811;SDS011;2932;52.400;9.558;2024-01-10T12:51:06;26.92;;;17.55;;
5811;SDS011;2932;52.400;9.558;2024-01-10T12:53:42;30.40;;;19.17;;
5811;SDS011;2932;52.400;9.558;2024-01-10T12:56:09;26.30;;;18.15;;
5811;SDS011;2932;52.400;9.558;2024-01-10T12:58:39;24.05;;;17.90;;
5811;SDS011;2932;52.400;9.558;2024-01-10T13:01:08;34.22;;;20.38;;
5811;SDS011;2932;52.400;9.558;2024-01-10T13:03:33;29.80;;;18.38;;
5811;SDS011;2932;52.400;9.558;2024-01-10T13:05:59;26.27;;;18.70;;
5811;SDS011;2932;52.400;9.558;2024-01-10T13:08:24;29.33;;;18.45;;
5811;SDS011;2932;52.400;9.558;2024-01-10T13:10:50;24.30;;;17.15;;
5811;SDS011;2932;52.400;9.558;2024-01-10T13:13:15;23.75;;;17.35;;
5811;SDS011;2932;52.400;9.558;2024-01-10T13:15:42;24.63;;;17.23;;
5811;SDS011;2932;52.400;9.558;2024-01-10T13:18:08;25.05;;;17.75;;
5811;SDS011;2932;52.400;9.558;2024-01-10T13:20:37;26.35;;;17.25;;
5811;SDS011;2932;52.400;9.558;2024-01-10T13:23:03;28.38;;;18.63;;
5811;SDS011;2932;52.400;9.558;2024-01-10T13:25:28;23.63;;;17.23;;
5811;SDS011;2932;52.400;9.558;2024-01-10T13:27:54;22.80;;;17.13;;
5811;SDS011;2932;52.400;9.558;2024-01-10T13:30:19;27.25;;;17.83;;
5811;SDS011;2932;52.400;9.558;2024-01-10T13:32:45;26.27;;;17.73;;
5811;SDS011;2932;52.400;9.558;2024-01-10T13:35:12;23.67;;;17.55;;
5811;SDS011;2932;52.400;9.558;2024-01-10T13:37:38;23.75;;;17.35;;
5811;SDS011;2932;52.400;9.558;2024-01-10T13:40:05;24.80;;;17.08;;
5811;SDS011;2932;52.400;9.558;2024-01-10T13:42:36;29.55;;;17.95;;
5811;SDS011;2932;52.400;9.558;2024-01-10T13:45:03;25.40;;;18.27;;
5811;SDS011;2932;52.400;9.558;2024-01-10T13:47:32;25.52;;;17.92;;
5811;SDS011;2932;52.400;9.558;2024-01-10T13:49:59;28.52;;;19.60;;
5811;SDS011;2932;52.400;9.558;2024-01-10T13:52:24;25.40;;;15.73;;
5811;SDS011;2932;52.400;9.558;2024-01-10T13:54:50;25.00;;;17.10;;
5811;SDS011;2932;52.400;9.558;2024-01-10T13:57:15;23.70;;;16.92;;
5811;SDS011;2932;52.400;9.558;2024-01-10T13:59:40;27.67;;;17.88;;
5811;SDS011;2932;52.400;9.558;2024-01-10T14:02:06;24.85;;;17.15;;
5811;SDS011;2932;52.400;9.558;2024-01-10T14:04:32;23.63;;;16.88;;
5811;SDS011;2932;52.400;9.558;2024-01-10T14:06:58;24.88;;;17.35;;
5811;SDS011;2932;52.400;9.558;2024-01-10T14:09:23;24.27;;;16.75;;
5811;SDS011;2932;52.400;9.558;2024-01-10T14:11:49;29.30;;;16.77;;
5811;SDS011;2932;52.400;9.558;2024-01-10T14:14:15;25.23;;;17.17;;
5811;SDS011;2932;52.400;9.558;2024-01-10T14:16:41;26.88;;;17.08;;
5811;SDS011;2932;52.400;9.558;2024-01-10T14:19:07;23.63;;;16.63;;
5811;SDS011;2932;52.400;9.558;2024-01-10T14:21:32;24.85;;;17.02;;
5811;SDS011;2932;52.400;9.558;2024-01-10T14:23:57;25.27;;;17.50;;
5811;SDS011;2932;52.400;9.558;2024-01-10T14:26:23;27.83;;;16.95;;
5811;SDS011;2932;52.400;9.558;2024-01-10T14:28:49;27.90;;;18.02;;
5811;SDS011;2932;52.400;9.558;2024-01-10T14:31:17;23.80;;;16.33;;
5811;SDS011;2932;52.400;9.558;2024-01-10T14:33:44;28.38;;;16.20;;
5811;SDS011;2932;52.400;9.558;2024-01-10T14:36:09;24.48;;;16.38;;
5811;SDS011;2932;52.400;9.558;2024-01-10T14:38:35;28.23;;;16.30;;
5811;SDS011;2932;52.400;9.558;2024-01-10T14:41:00;28.30;;;16.98;;
5811;SDS011;2932;52.400;9.558;2024-01-10T14:43:26;25.92;;;17.05;;
5811;SDS011;2932;52.400;9.558;2024-01-10T14:45:51;24.00;;;16.08;;
5811;SDS011;2932;52.400;9.558;2024-01-10T14:48:16;25.55;;;15.35;;
5811;SDS011;2932;52.400;9.558;2024-01-10T14:50:41;24.70;;;15.85;;
5811;SDS011;2932;52.400;9.558;2024-01-10T14:53:07;25.02;;;15.55;;
5811;SDS011;2932;52.400;9.558;2024-01-10T14:55:33;27.57;;;15.53;;
5811;SDS011;2932;52.400;9.558;2024-01-10T14:57:58;25.80;;;15.23;;
5811;SDS011;2932;52.400;9.558;2024-01-10T15:00:24;23.83;;;14.37;;